sensor_id;sensor_type;location;lat;lon;timestamp;P1;durP1;ratioP1;P2;durP2;ratioP2
10056;SDS011;5068;51.286;7.518;2023-04-01T00:00:04;0.93;;;0.43;;
10056;SDS011;5068;51.286;7.518;2023-04-01T00:01:42;1.35;;;0.20;;
10056;SDS011;5068;51.286;7.518;2023-04-01T00:03:16;1.35;;;0.40;;
10056;SDS011;5068;51.286;7.518;2023-04-01T00:06:25;0.28;;;0.10;;
10056;SDS011;5068;51.286;7.518;2023-04-01T00:07:58;1.70;;;0.40;;
10056;SDS011;5068;51.286;7.518;2023-04-01T00:09:32;1.75;;;0.20;;
10056;SDS011;5068;51.286;7.518;2023-04-01T00:11:06;0.77;;;0.10;;
10056;SDS011;5068;51.286;7.518;2023-04-01T00:12:41;0.65;;;0.10;;
10056;SDS011;5068;51.286;7.518;2023-04-01T00:14:18;1.80;;;0.30;;
10056;SDS011;5068;51.286;7.518;2023-04-01T00:15:52;1.45;;;0.40;;
10056;SDS011;5068;51.286;7.518;2023-04-01T00:17:28;0.88;;;0.60;;
10056;SDS011;5068;51.286;7.518;2023-04-01T00:19:02;1.13;;;0.30;;
10056;SDS011;5068;51.286;7.518;2023-04-01T00:20:36;1.17;;;0.40;;
10056;SDS011;5068;51.286;7.518;2023-04-01T00:22:10;1.20;;;0.40;;
10056;SDS011;5068;51.286;7.518;2023-04-01T00:23:44;1.17;;;0.40;;
10056;SDS011;5068;51.286;7.518;2023-04-01T00:25:18;1.05;;;0.22;;
10056;SDS011;5068;51.286;7.518;2023-04-01T00:26:50;0.55;;;0.13;;
10056;SDS011;5068;51.286;7.518;2023-04-01T00:28:26;0.50;;;0.25;;
10056;SDS011;5068;51.286;7.518;2023-04-01T00:30:01;0.68;;;0.10;;
10056;SDS011;5068;51.286;7.518;2023-04-01T00:31:36;2.42;;;0.28;;
10056;SDS011;5068;51.286;7.518;2023-04-01T00:33:10;1.33;;;0.22;;
10056;SDS011;5068;51.286;7.518;2023-04-01T00:34:44;1.00;;;0.10;;
10056;SDS011;5068;51.286;7.518;2023-04-01T00:36:19;1.48;;;0.20;;
10056;SDS011;5068;51.286;7.518;2023-04-01T00:37:55;0.75;;;0.20;;
10056;SDS011;5068;51.286;7.518;2023-04-01T00:39:28;0.30;;;0.10;;
10056;SDS011;5068;51.286;7.518;2023-04-01T00:41:03;0.80;;;0.22;;
10056;SDS011;5068;51.286;7.518;2023-04-01T00:42:37;0.63;;;0.13;;
10056;SDS011;5068;51.286;7.518;2023-04-01T00:44:14;1.00;;;0.20;;
10056;SDS011;5068;51.286;7.518;2023-04-01T00:45:50;0.77;;;0.35;;
10056;SDS011;5068;51.286;7.518;2023-04-01T00:47:24;1.10;;;0.30;;
10056;SDS011;5068;51.286;7.518;2023-04-01T00:49:00;2.25;;;0.30;;
10056;SDS011;5068;51.286;7.518;2023-04-01T00:50:34;1.38;;;0.10;;
10056;SDS011;5068;51.286;7.518;2023-04-01T00:52:12;0.85;;;0.10;;
10056;SDS011;5068;51.286;7.518;2023-04-01T00:53:51;0.88;;;0.22;;
10056;SDS011;5068;51.286;7.518;2023-04-01T00:55:29;0.57;;;0.10;;
10056;SDS011;5068;51.286;7.518;2023-04-01T00:57:08;0.60;;;0.45;;
10056;SDS011;5068;51.286;7.518;2023-04-01T00:58:47;1.48;;;0.40;;
10056;SDS011;5068;51.286;7.518;2023-04-01T01:03:56;0.40;;;0.20;;
10056;SDS011;5068;51.286;7.518;2023-04-01T01:05:33;0.70;;;0.20;;
10056;SDS011;5068;51.286;7.518;2023-04-01T01:07:31;0.77;;;0.10;;
10056;SDS011;5068;51.286;7.518;2023-04-01T01:11:19;0.40;;;0.20;;
10056;SDS011;5068;51.286;7.518;2023-04-01T01:13:15;0.95;;;0.10;;
10056;SDS011;5068;51.286;7.518;2023-04-01T01:15:01;0.60;;;0.10;;
10056;SDS011;5068;51.286;7.518;2023-04-01T01:16:46;1.08;;;0.17;;
10056;SDS011;5068;51.286;7.518;2023-04-01T01:18:30;1.27;;;0.20;;
10056;SDS011;5068;51.286;7.518;2023-04-01T01:22:44;2.20;;;0.10;;
10056;SDS011;5068;51.286;7.518;2023-04-01T01:24:51;0.85;;;0.10;;
10056;SDS011;5068;51.286;7.518;2023-04-01T01:26:46;1.25;;;0.25;;
10056;SDS011;5068;51.286;7.518;2023-04-01T01:28:32;0.80;;;0.20;;
10056;SDS011;5068;51.286;7.518;2023-04-01T01:30:23;0.60;;;0.20;;
10056;SDS011;5068;51.286;7.518;2023-04-01T01:32:11;0.95;;;0.20;;
10056;SDS011;5068;51.286;7.518;2023-04-01T01:34:06;0.68;;;0.30;;
10056;SDS011;5068;51.286;7.518;2023-04-01T01:35:53;0.95;;;0.10;;
10056;SDS011;5068;51.286;7.518;2023-04-01T01:37:37;0.98;;;0.20;;
10056;SDS011;5068;51.286;7.518;2023-04-01T01:39:15;0.80;;;0.20;;
10056;SDS011;5068;51.286;7.518;2023-04-01T01:40:57;0.90;;;0.20;;
10056;SDS011;5068;51.286;7.518;2023-04-01T01:42:36;0.32;;;0.10;;
10056;SDS011;5068;51.286;7.518;2023-04-01T01:44:14;0.90;;;0.10;;
10056;SDS011;5068;51.286;7.518;2023-04-01T01:45:51;0.73;;;0.10;;
10056;SDS011;5068;51.286;7.518;2023-04-01T01:47:29;0.40;;;0.20;;
10056;SDS011;5068;51.286;7.518;2023-04-01T01:49:05;0.63;;;0.20;;
10056;SDS011;5068;51.286;7.518;2023-04-01T01:50:44;0.90;;;0.10;;
10056;SDS011;5068;51.286;7.518;2023-04-01T01:52:21;0.85;;;0.30;;
10056;SDS011;5068;51.286;7.518;2023-04-01T01:53:55;0.85;;;0.30;;
10056;SDS011;5068;51.286;7.518;2023-04-01T01:55:30;0.30;;;0.00;;
10056;SDS011;5068;51.286;7.518;2023-04-01T01:57:06;0.40;;;0.10;;
10056;SDS011;5068;51.286;7.518;2023-04-01T01:58:47;1.10;;;0.30;;
10056;SDS011;5068;51.286;7.518;2023-04-01T02:00:25;0.40;;;0.10;;
10056;SDS011;5068;51.286;7.518;2023-04-01T02:03:39;1.42;;;0.20;;
10056;SDS011;5068;51.286;7.518;2023-04-01T02:05:17;0.50;;;0.10;;
10056;SDS011;5068;51.286;7.518;2023-04-01T02:06:58;1.55;;;0.20;;
10056;SDS011;5068;51.286;7.518;2023-04-01T02:08:37;0.28;;;0.10;;
10056;SDS011;5068;51.286;7.518;2023-04-01T02:10:17;0.98;;;0.20;;
10056;SDS011;5068;51.286;7.518;2023-04-01T02:11:56;0.50;;;0.10;;
10056;SDS011;5068;51.286;7.518;2023-04-01T02:13:40;0.65;;;0.10;;
10056;SDS011;5068;51.286;7.518;2023-04-01T02:15:20;1.02;;;0.15;;
10056;SDS011;5068;51.286;7.518;2023-04-01T02:16:55;0.95;;;0.10;;
10056;SDS011;5068;51.286;7.518;2023-04-01T02:18:33;0.50;;;0.10;;
10056;SDS011;5068;51.286;7.518;2023-04-01T02:20:10;1.20;;;0.20;;
10056;SDS011;5068;51.286;7.518;2023-04-01T02:21:49;0.15;;;0.03;;
10056;SDS011;5068;51.286;7.518;2023-04-01T02:23:27;0.20;;;0.00;;
10056;SDS011;5068;51.286;7.518;2023-04-01T02:25:03;1.45;;;0.00;;
10056;SDS011;5068;51.286;7.518;2023-04-01T02:26:41;0.32;;;0.03;;
10056;SDS011;5068;51.286;7.518;2023-04-01T02:28:16;0.40;;;0.10;;
10056;SDS011;5068;51.286;7.518;2023-04-01T02:29:52;0.45;;;0.03;;
10056;SDS011;5068;51.286;7.518;2023-04-01T02:31:26;0.50;;;0.10;;
10056;SDS011;5068;51.286;7.518;2023-04-01T02:33:00;0.65;;;0.10;;
10056;SDS011;5068;51.286;7.518;2023-04-01T02:34:36;0.35;;;0.05;;
10056;SDS011;5068;51.286;7.518;2023-04-01T02:36:10;0.20;;;0.10;;
10056;SDS011;5068;51.286;7.518;2023-04-01T02:37:45;0.15;;;0.00;;
10056;SDS011;5068;51.286;7.518;2023-04-01T02:39:22;0.95;;;0.20;;
10056;SDS011;5068;51.286;7.518;2023-04-01T02:40:58;0.63;;;0.15;;
10056;SDS011;5068;51.286;7.518;2023-04-01T02:42:35;0.38;;;0.20;;
10056;SDS011;5068;51.286;7.518;2023-04-01T02:44:08;0.65;;;0.10;;
10056;SDS011;5068;51.286;7.518;2023-04-01T02:45:43;0.63;;;0.10;;
10056;SDS011;5068;51.286;7.518;2023-04-01T02:47:16;1.42;;;0.10;;
10056;SDS011;5068;51.286;7.518;2023-04-01T02:48:50;0.60;;;0.10;;
10056;SDS011;5068;51.286;7.518;2023-04-01T02:50:23;0.38;;;0.10;;
10056;SDS011;5068;51.286;7.518;2023-04-01T02:51:55;0.00;;;0.00;;
10056;SDS011;5068;51.286;7.518;2023-04-01T02:53:28;0.52;;;0.10;;
10056;SDS011;5068;51.286;7.518;2023-04-01T02:55:02;0.40;;;0.10;;
10056;SDS011;5068;51.286;7.518;2023-04-01T02:56:37;0.15;;;0.00;;
10056;SDS011;5068;51.286;7.518;2023-04-01T02:58:13;0.25;;;0.00;;
10056;SDS011;5068;51.286;7.518;2023-04-01T02:59:46;0.30;;;0.03;;
10056;SDS011;5068;51.286;7.518;2023-04-01T03:01:20;0.30;;;0.03;;
10056;SDS011;5068;51.286;7.518;2023-04-01T03:02:54;0.50;;;0.30;;
10056;SDS011;5068;51.286;7.518;2023-04-01T03:04:28;2.72;;;0.35;;
10056;SDS011;5068;51.286;7.518;2023-04-01T03:06:04;0.45;;;0.00;;
10056;SDS011;5068;51.286;7.518;2023-04-01T03:07:38;0.75;;;0.00;;
10056;SDS011;5068;51.286;7.518;2023-04-01T03:09:11;0.50;;;0.10;;
10056;SDS011;5068;51.286;7.518;2023-04-01T03:10:43;1.05;;;0.10;;
10056;SDS011;5068;51.286;7.518;2023-04-01T03:12:17;0.85;;;0.20;;
10056;SDS011;5068;51.286;7.518;2023-04-01T03:13:54;0.55;;;0.10;;
10056;SDS011;5068;51.286;7.518;2023-04-01T03:15:27;0.17;;;0.00;;
10056;SDS011;5068;51.286;7.518;2023-04-01T03:17:01;0.50;;;0.10;;
10056;SDS011;5068;51.286;7.518;2023-04-01T03:18:34;0.47;;;0.05;;
10056;SDS011;5068;51.286;7.518;2023-04-01T03:20:08;0.15;;;0.08;;
10056;SDS011;5068;51.286;7.518;2023-04-01T03:21:43;0.10;;;0.00;;
10056;SDS011;5068;51.286;7.518;2023-04-01T03:23:16;0.32;;;0.13;;
10056;SDS011;5068;51.286;7.518;2023-04-01T03:24:50;0.77;;;0.10;;
10056;SDS011;5068;51.286;7.518;2023-04-01T03:26:24;1.17;;;0.40;;
10056;SDS011;5068;51.286;7.518;2023-04-01T03:28:00;0.47;;;0.00;;
10056;SDS011;5068;51.286;7.518;2023-04-01T03:29:33;0.85;;;0.10;;
10056;SDS011;5068;51.286;7.518;2023-04-01T03:31:06;0.38;;;0.08;;
10056;SDS011;5068;51.286;7.518;2023-04-01T03:32:46;0.08;;;0.00;;
10056;SDS011;5068;51.286;7.518;2023-04-01T03:34:19;0.20;;;0.00;;
10056;SDS011;5068;51.286;7.518;2023-04-01T03:35:52;0.13;;;0.00;;
10056;SDS011;5068;51.286;7.518;2023-04-01T03:37:25;0.17;;;0.00;;
10056;SDS011;5068;51.286;7.518;2023-04-01T03:38:59;0.32;;;0.00;;
10056;SDS011;5068;51.286;7.518;2023-04-01T03:40:41;1.05;;;0.10;;
10056;SDS011;5068;51.286;7.518;2023-04-01T03:42:15;0.32;;;0.10;;
10056;SDS011;5068;51.286;7.518;2023-04-01T03:43:50;0.77;;;0.00;;
10056;SDS011;5068;51.286;7.518;2023-04-01T03:45:23;0.20;;;0.00;;
10056;SDS011;5068;51.286;7.518;2023-04-01T03:46:56;0.22;;;0.10;;
10056;SDS011;5068;51.286;7.518;2023-04-01T03:48:30;0.43;;;0.10;;
10056;SDS011;5068;51.286;7.518;2023-04-01T03:50:12;0.13;;;0.05;;
10056;SDS011;5068;51.286;7.518;2023-04-01T03:51:46;0.47;;;0.00;;
10056;SDS011;5068;51.286;7.518;2023-04-01T03:53:18;0.10;;;0.00;;
10056;SDS011;5068;51.286;7.518;2023-04-01T03:54:52;1.40;;;0.00;;
10056;SDS011;5068;51.286;7.518;2023-04-01T03:56:25;2.05;;;0.40;;
10056;SDS011;5068;51.286;7.518;2023-04-01T03:57:58;0.68;;;0.10;;
10056;SDS011;5068;51.286;7.518;2023-04-01T03:59:34;0.28;;;0.00;;
10056;SDS011;5068;51.286;7.518;2023-04-01T04:01:16;0.28;;;0.15;;
10056;SDS011;5068;51.286;7.518;2023-04-01T04:02:54;0.35;;;0.08;;
10056;SDS011;5068;51.286;7.518;2023-04-01T04:04:34;0.10;;;0.00;;
10056;SDS011;5068;51.286;7.518;2023-04-01T04:06:10;1.60;;;0.10;;
10056;SDS011;5068;51.286;7.518;2023-04-01T04:07:43;0.30;;;0.10;;
10056;SDS011;5068;51.286;7.518;2023-04-01T04:09:16;0.30;;;0.00;;
10056;SDS011;5068;51.286;7.518;2023-04-01T04:10:54;0.20;;;0.00;;
10056;SDS011;5068;51.286;7.518;2023-04-01T04:12:28;0.00;;;0.00;;
10056;SDS011;5068;51.286;7.518;2023-04-01T04:14:01;0.20;;;0.00;;
10056;SDS011;5068;51.286;7.518;2023-04-01T04:15:35;0.25;;;0.00;;
10056;SDS011;5068;51.286;7.518;2023-04-01T04:17:09;0.22;;;0.00;;
10056;SDS011;5068;51.286;7.518;2023-04-01T04:18:47;0.03;;;0.00;;
10056;SDS011;5068;51.286;7.518;2023-04-01T04:20:22;0.10;;;0.00;;
10056;SDS011;5068;51.286;7.518;2023-04-01T04:21:55;0.10;;;0.00;;
10056;SDS011;5068;51.286;7.518;2023-04-01T04:23:28;0.10;;;0.00;;
10056;SDS011;5068;51.286;7.518;2023-04-01T04:25:04;0.00;;;0.00;;
10056;SDS011;5068;51.286;7.518;2023-04-01T04:26:40;0.13;;;0.03;;
10056;SDS011;5068;51.286;7.518;2023-04-01T04:28:13;0.30;;;0.00;;
10056;SDS011;5068;51.286;7.518;2023-04-01T04:29:46;0.00;;;0.00;;
10056;SDS011;5068;51.286;7.518;2023-04-01T04:31:20;0.50;;;0.05;;
10056;SDS011;5068;51.286;7.518;2023-04-01T04:32:58;0.20;;;0.00;;
10056;SDS011;5068;51.286;7.518;2023-04-01T04:34:31;0.03;;;0.00;;
10056;SDS011;5068;51.286;7.518;2023-04-01T04:36:04;0.00;;;0.00;;
10056;SDS011;5068;51.286;7.518;2023-04-01T04:37:38;0.10;;;0.03;;
10056;SDS011;5068;51.286;7.518;2023-04-01T04:39:12;1.27;;;0.00;;
10056;SDS011;5068;51.286;7.518;2023-04-01T04:40:46;0.98;;;0.10;;
10056;SDS011;5068;51.286;7.518;2023-04-01T04:42:20;0.32;;;0.03;;
10056;SDS011;5068;51.286;7.518;2023-04-01T04:43:56;0.00;;;0.00;;
10056;SDS011;5068;51.286;7.518;2023-04-01T04:45:30;0.40;;;0.00;;
10056;SDS011;5068;51.286;7.518;2023-04-01T04:47:06;0.00;;;0.00;;
10056;SDS011;5068;51.286;7.518;2023-04-01T04:48:40;0.40;;;0.08;;
10056;SDS011;5068;51.286;7.518;2023-04-01T04:50:15;0.00;;;0.00;;
10056;SDS011;5068;51.286;7.518;2023-04-01T04:51:48;0.50;;;0.10;;
10056;SDS011;5068;51.286;7.518;2023-04-01T04:54:57;0.60;;;0.00;;
10056;SDS011;5068;51.286;7.518;2023-04-01T04:56:30;0.08;;;0.00;;
10056;SDS011;5068;51.286;7.518;2023-04-01T04:58:09;0.15;;;0.00;;
10056;SDS011;5068;51.286;7.518;2023-04-01T04:59:45;0.00;;;0.00;;
10056;SDS011;5068;51.286;7.518;2023-04-01T05:01:37;0.00;;;0.00;;
10056;SDS011;5068;51.286;7.518;2023-04-01T05:03:13;0.60;;;0.00;;
10056;SDS011;5068;51.286;7.518;2023-04-01T05:04:46;0.22;;;0.08;;
10056;SDS011;5068;51.286;7.518;2023-04-01T05:06:20;0.28;;;0.08;;
10056;SDS011;5068;51.286;7.518;2023-04-01T05:07:54;0.00;;;0.00;;
10056;SDS011;5068;51.286;7.518;2023-04-01T05:09:27;0.10;;;0.00;;
10056;SDS011;5068;51.286;7.518;2023-04-01T05:11:00;0.20;;;0.10;;
10056;SDS011;5068;51.286;7.518;2023-04-01T05:12:37;0.22;;;0.10;;
10056;SDS011;5068;51.286;7.518;2023-04-01T05:14:13;0.10;;;0.05;;
10056;SDS011;5068;51.286;7.518;2023-04-01T05:15:53;0.10;;;0.10;;
10056;SDS011;5068;51.286;7.518;2023-04-01T05:17:26;0.00;;;0.00;;
10056;SDS011;5068;51.286;7.518;2023-04-01T05:19:01;0.13;;;0.00;;
10056;SDS011;5068;51.286;7.518;2023-04-01T05:20:34;0.52;;;0.10;;
10056;SDS011;5068;51.286;7.518;2023-04-01T05:22:08;0.13;;;0.00;;
10056;SDS011;5068;51.286;7.518;2023-04-01T05:23:42;0.20;;;0.10;;
10056;SDS011;5068;51.286;7.518;2023-04-01T05:25:15;0.20;;;0.10;;
10056;SDS011;5068;51.286;7.518;2023-04-01T05:26:48;1.90;;;0.10;;
10056;SDS011;5068;51.286;7.518;2023-04-01T05:28:21;0.57;;;0.00;;
10056;SDS011;5068;51.286;7.518;2023-04-01T05:29:55;0.20;;;0.00;;
10056;SDS011;5068;51.286;7.518;2023-04-01T05:31:44;0.00;;;0.00;;
10056;SDS011;5068;51.286;7.518;2023-04-01T05:33:17;1.30;;;0.10;;
10056;SDS011;5068;51.286;7.518;2023-04-01T05:34:52;0.75;;;0.00;;
10056;SDS011;5068;51.286;7.518;2023-04-01T05:36:26;1.60;;;0.13;;
10056;SDS011;5068;51.286;7.518;2023-04-01T05:38:00;0.10;;;0.03;;
10056;SDS011;5068;51.286;7.518;2023-04-01T05:39:35;0.35;;;0.00;;
10056;SDS011;5068;51.286;7.518;2023-04-01T05:41:09;0.20;;;0.00;;
10056;SDS011;5068;51.286;7.518;2023-04-01T05:42:46;0.10;;;0.00;;
10056;SDS011;5068;51.286;7.518;2023-04-01T05:44:20;0.52;;;0.03;;
10056;SDS011;5068;51.286;7.518;2023-04-01T05:46:23;0.88;;;0.00;;
10056;SDS011;5068;51.286;7.518;2023-04-01T05:49:42;0.82;;;0.10;;
10056;SDS011;5068;51.286;7.518;2023-04-01T05:51:17;0.30;;;0.05;;
10056;SDS011;5068;51.286;7.518;2023-04-01T05:52:50;0.75;;;0.08;;
10056;SDS011;5068;51.286;7.518;2023-04-01T05:54:24;0.05;;;0.00;;
10056;SDS011;5068;51.286;7.518;2023-04-01T05:55:57;0.03;;;0.00;;
10056;SDS011;5068;51.286;7.518;2023-04-01T05:57:39;0.05;;;0.00;;
10056;SDS011;5068;51.286;7.518;2023-04-01T05:59:13;0.20;;;0.08;;
10056;SDS011;5068;51.286;7.518;2023-04-01T06:00:46;0.20;;;0.00;;
10056;SDS011;5068;51.286;7.518;2023-04-01T06:04:06;0.43;;;0.25;;
10056;SDS011;5068;51.286;7.518;2023-04-01T06:05:45;0.10;;;0.00;;
10056;SDS011;5068;51.286;7.518;2023-04-01T06:07:19;0.45;;;0.08;;
10056;SDS011;5068;51.286;7.518;2023-04-01T06:08:52;0.15;;;0.10;;
10056;SDS011;5068;51.286;7.518;2023-04-01T06:10:33;0.10;;;0.00;;
10056;SDS011;5068;51.286;7.518;2023-04-01T06:12:30;0.38;;;0.17;;
10056;SDS011;5068;51.286;7.518;2023-04-01T06:14:34;0.22;;;0.10;;
10056;SDS011;5068;51.286;7.518;2023-04-01T06:16:25;0.10;;;0.00;;
10056;SDS011;5068;51.286;7.518;2023-04-01T06:18:20;0.10;;;0.00;;
10056;SDS011;5068;51.286;7.518;2023-04-01T06:20:19;0.73;;;0.10;;
10056;SDS011;5068;51.286;7.518;2023-04-01T06:24:38;2.60;;;0.20;;
10056;SDS011;5068;51.286;7.518;2023-04-01T06:26:32;0.30;;;0.10;;
10056;SDS011;5068;51.286;7.518;2023-04-01T06:28:20;0.52;;;0.10;;
10056;SDS011;5068;51.286;7.518;2023-04-01T06:32:24;0.10;;;0.10;;
10056;SDS011;5068;51.286;7.518;2023-04-01T06:34:16;0.40;;;0.10;;
10056;SDS011;5068;51.286;7.518;2023-04-01T06:36:19;0.10;;;0.10;;
10056;SDS011;5068;51.286;7.518;2023-04-01T06:38:22;0.28;;;0.10;;
10056;SDS011;5068;51.286;7.518;2023-04-01T06:40:22;0.32;;;0.10;;
10056;SDS011;5068;51.286;7.518;2023-04-01T06:42:26;0.22;;;0.10;;
10056;SDS011;5068;51.286;7.518;2023-04-01T06:44:55;0.50;;;0.10;;
10056;SDS011;5068;51.286;7.518;2023-04-01T06:47:01;0.90;;;0.10;;
10056;SDS011;5068;51.286;7.518;2023-04-01T06:51:34;0.28;;;0.10;;
10056;SDS011;5068;51.286;7.518;2023-04-01T06:53:45;0.40;;;0.08;;
10056;SDS011;5068;51.286;7.518;2023-04-01T06:55:52;0.32;;;0.10;;
10056;SDS011;5068;51.286;7.518;2023-04-01T06:57:55;0.20;;;0.05;;
10056;SDS011;5068;51.286;7.518;2023-04-01T06:59:33;0.15;;;0.10;;
10056;SDS011;5068;51.286;7.518;2023-04-01T07:01:10;0.40;;;0.08;;
10056;SDS011;5068;51.286;7.518;2023-04-01T07:02:53;0.20;;;0.00;;
10056;SDS011;5068;51.286;7.518;2023-04-01T07:04:37;0.10;;;0.05;;
10056;SDS011;5068;51.286;7.518;2023-04-01T07:06:18;2.10;;;0.10;;
10056;SDS011;5068;51.286;7.518;2023-04-01T07:08:03;0.28;;;0.13;;
10056;SDS011;5068;51.286;7.518;2023-04-01T07:09:47;0.65;;;0.10;;
10056;SDS011;5068;51.286;7.518;2023-04-01T07:11:34;0.30;;;0.15;;
10056;SDS011;5068;51.286;7.518;2023-04-01T07:13:44;0.52;;;0.22;;
10056;SDS011;5068;51.286;7.518;2023-04-01T07:15:25;0.47;;;0.10;;
10056;SDS011;5068;51.286;7.518;2023-04-01T07:17:08;0.17;;;0.10;;
10056;SDS011;5068;51.286;7.518;2023-04-01T07:18:50;0.30;;;0.20;;
10056;SDS011;5068;51.286;7.518;2023-04-01T07:20:37;0.32;;;0.10;;
10056;SDS011;5068;51.286;7.518;2023-04-01T07:22:14;0.30;;;0.10;;
10056;SDS011;5068;51.286;7.518;2023-04-01T07:24:09;0.43;;;0.10;;
10056;SDS011;5068;51.286;7.518;2023-04-01T07:25:59;0.28;;;0.10;;
10056;SDS011;5068;51.286;7.518;2023-04-01T07:28:13;0.60;;;0.10;;
10056;SDS011;5068;51.286;7.518;2023-04-01T07:29:55;0.20;;;0.10;;
10056;SDS011;5068;51.286;7.518;2023-04-01T07:31:32;0.20;;;0.10;;
10056;SDS011;5068;51.286;7.518;2023-04-01T07:33:48;0.20;;;0.08;;
10056;SDS011;5068;51.286;7.518;2023-04-01T07:35:35;0.08;;;0.00;;
10056;SDS011;5068;51.286;7.518;2023-04-01T07:37:21;0.47;;;0.15;;
10056;SDS011;5068;51.286;7.518;2023-04-01T07:39:04;1.55;;;0.20;;
10056;SDS011;5068;51.286;7.518;2023-04-01T07:41:09;0.15;;;0.10;;
10056;SDS011;5068;51.286;7.518;2023-04-01T07:45:27;0.45;;;0.10;;
10056;SDS011;5068;51.286;7.518;2023-04-01T07:49:21;0.47;;;0.10;;
10056;SDS011;5068;51.286;7.518;2023-04-01T07:51:06;0.30;;;0.10;;
10056;SDS011;5068;51.286;7.518;2023-04-01T07:52:49;0.10;;;0.10;;
10056;SDS011;5068;51.286;7.518;2023-04-01T07:56:22;0.55;;;0.10;;
10056;SDS011;5068;51.286;7.518;2023-04-01T07:58:03;0.30;;;0.10;;
10056;SDS011;5068;51.286;7.518;2023-04-01T07:59:51;0.25;;;0.10;;
10056;SDS011;5068;51.286;7.518;2023-04-01T08:01:55;0.30;;;0.08;;
10056;SDS011;5068;51.286;7.518;2023-04-01T08:03:48;0.47;;;0.10;;
10056;SDS011;5068;51.286;7.518;2023-04-01T08:05:45;0.10;;;0.05;;
10056;SDS011;5068;51.286;7.518;2023-04-01T08:07:30;0.93;;;0.10;;
10056;SDS011;5068;51.286;7.518;2023-04-01T08:09:38;0.10;;;0.10;;
10056;SDS011;5068;51.286;7.518;2023-04-01T08:11:44;0.52;;;0.10;;
10056;SDS011;5068;51.286;7.518;2023-04-01T08:13:51;0.25;;;0.08;;
10056;SDS011;5068;51.286;7.518;2023-04-01T08:15:55;0.63;;;0.00;;
10056;SDS011;5068;51.286;7.518;2023-04-01T08:17:55;0.30;;;0.03;;
10056;SDS011;5068;51.286;7.518;2023-04-01T08:19:45;0.10;;;0.00;;
10056;SDS011;5068;51.286;7.518;2023-04-01T08:21:38;0.10;;;0.10;;
10056;SDS011;5068;51.286;7.518;2023-04-01T08:23:19;0.28;;;0.00;;
10056;SDS011;5068;51.286;7.518;2023-04-01T08:24:56;0.98;;;0.10;;
10056;SDS011;5068;51.286;7.518;2023-04-01T08:26:35;0.10;;;0.10;;
10056;SDS011;5068;51.286;7.518;2023-04-01T08:28:19;0.10;;;0.00;;
10056;SDS011;5068;51.286;7.518;2023-04-01T08:30:02;0.10;;;0.00;;
10056;SDS011;5068;51.286;7.518;2023-04-01T08:31:51;0.28;;;0.05;;
10056;SDS011;5068;51.286;7.518;2023-04-01T08:33:29;0.20;;;0.10;;
10056;SDS011;5068;51.286;7.518;2023-04-01T08:35:14;0.30;;;0.10;;
10056;SDS011;5068;51.286;7.518;2023-04-01T08:37:02;0.20;;;0.10;;
10056;SDS011;5068;51.286;7.518;2023-04-01T08:38:42;0.10;;;0.00;;
10056;SDS011;5068;51.286;7.518;2023-04-01T08:40:28;0.10;;;0.10;;
10056;SDS011;5068;51.286;7.518;2023-04-01T08:44:44;0.20;;;0.00;;
10056;SDS011;5068;51.286;7.518;2023-04-01T08:50:56;0.05;;;0.00;;
10056;SDS011;5068;51.286;7.518;2023-04-01T08:53:00;0.20;;;0.10;;
10056;SDS011;5068;51.286;7.518;2023-04-01T08:55:00;0.20;;;0.10;;
10056;SDS011;5068;51.286;7.518;2023-04-01T08:57:10;0.22;;;0.10;;
10056;SDS011;5068;51.286;7.518;2023-04-01T08:59:20;0.10;;;0.10;;
10056;SDS011;5068;51.286;7.518;2023-04-01T09:01:53;0.03;;;0.00;;
10056;SDS011;5068;51.286;7.518;2023-04-01T09:03:59;0.30;;;0.10;;
10056;SDS011;5068;51.286;7.518;2023-04-01T09:06:12;0.20;;;0.10;;
10056;SDS011;5068;51.286;7.518;2023-04-01T09:08:09;0.90;;;0.25;;
10056;SDS011;5068;51.286;7.518;2023-04-01T09:13:05;0.45;;;0.10;;
10056;SDS011;5068;51.286;7.518;2023-04-01T09:15:04;0.20;;;0.10;;
10056;SDS011;5068;51.286;7.518;2023-04-01T09:17:17;0.30;;;0.10;;
10056;SDS011;5068;51.286;7.518;2023-04-01T09:19:28;0.40;;;0.10;;
10056;SDS011;5068;51.286;7.518;2023-04-01T09:25:45;0.45;;;0.28;;
10056;SDS011;5068;51.286;7.518;2023-04-01T09:27:33;0.40;;;0.10;;
10056;SDS011;5068;51.286;7.518;2023-04-01T09:29:20;0.20;;;0.10;;
10056;SDS011;5068;51.286;7.518;2023-04-01T09:36:12;0.22;;;0.10;;
10056;SDS011;5068;51.286;7.518;2023-04-01T09:38:11;0.10;;;0.03;;
10056;SDS011;5068;51.286;7.518;2023-04-01T09:40:02;0.28;;;0.20;;
10056;SDS011;5068;51.286;7.518;2023-04-01T09:41:57;0.08;;;0.00;;
10056;SDS011;5068;51.286;7.518;2023-04-01T09:44:03;0.22;;;0.10;;
10056;SDS011;5068;51.286;7.518;2023-04-01T09:46:06;0.38;;;0.10;;
10056;SDS011;5068;51.286;7.518;2023-04-01T09:47:57;0.32;;;0.10;;
10056;SDS011;5068;51.286;7.518;2023-04-01T09:49:56;0.57;;;0.05;;
10056;SDS011;5068;51.286;7.518;2023-04-01T09:52:01;0.10;;;0.10;;
10056;SDS011;5068;51.286;7.518;2023-04-01T10:01:28;0.20;;;0.10;;
10056;SDS011;5068;51.286;7.518;2023-04-01T10:03:51;0.40;;;0.20;;
10056;SDS011;5068;51.286;7.518;2023-04-01T10:06:14;0.57;;;0.20;;
10056;SDS011;5068;51.286;7.518;2023-04-01T10:08:38;0.38;;;0.20;;
10056;SDS011;5068;51.286;7.518;2023-04-01T10:10:47;0.25;;;0.10;;
10056;SDS011;5068;51.286;7.518;2023-04-01T10:12:58;0.20;;;0.13;;
10056;SDS011;5068;51.286;7.518;2023-04-01T10:15:21;0.30;;;0.28;;
10056;SDS011;5068;51.286;7.518;2023-04-01T10:17:37;0.30;;;0.20;;
10056;SDS011;5068;51.286;7.518;2023-04-01T10:20:03;0.20;;;0.20;;
10056;SDS011;5068;51.286;7.518;2023-04-01T10:25:23;0.80;;;0.50;;
10056;SDS011;5068;51.286;7.518;2023-04-01T10:27:36;0.50;;;0.40;;
10056;SDS011;5068;51.286;7.518;2023-04-01T10:32:38;0.57;;;0.40;;
10056;SDS011;5068;51.286;7.518;2023-04-01T10:37:09;1.17;;;0.73;;
10056;SDS011;5068;51.286;7.518;2023-04-01T10:41:42;1.20;;;0.90;;
10056;SDS011;5068;51.286;7.518;2023-04-01T10:44:17;1.20;;;0.90;;
10056;SDS011;5068;51.286;7.518;2023-04-01T10:49:32;0.70;;;0.50;;
10056;SDS011;5068;51.286;7.518;2023-04-01T10:51:55;0.70;;;0.57;;
10056;SDS011;5068;51.286;7.518;2023-04-01T10:54:39;0.63;;;0.43;;
10056;SDS011;5068;51.286;7.518;2023-04-01T10:56:39;0.57;;;0.47;;
10056;SDS011;5068;51.286;7.518;2023-04-01T11:01:22;1.13;;;0.30;;
10056;SDS011;5068;51.286;7.518;2023-04-01T11:04:17;0.68;;;0.30;;
10056;SDS011;5068;51.286;7.518;2023-04-01T11:07:10;0.52;;;0.30;;
10056;SDS011;5068;51.286;7.518;2023-04-01T11:14:11;0.52;;;0.30;;
10056;SDS011;5068;51.286;7.518;2023-04-01T11:18:51;0.77;;;0.45;;
10056;SDS011;5068;51.286;7.518;2023-04-01T11:23:44;0.75;;;0.60;;
10056;SDS011;5068;51.286;7.518;2023-04-01T11:25:49;0.80;;;0.60;;
10056;SDS011;5068;51.286;7.518;2023-04-01T11:27:57;0.80;;;0.60;;
10056;SDS011;5068;51.286;7.518;2023-04-01T11:30:12;1.30;;;0.70;;
10056;SDS011;5068;51.286;7.518;2023-04-01T11:32:02;1.20;;;0.73;;
10056;SDS011;5068;51.286;7.518;2023-04-01T11:33:53;1.10;;;0.60;;
10056;SDS011;5068;51.286;7.518;2023-04-01T11:35:48;1.13;;;0.52;;
10056;SDS011;5068;51.286;7.518;2023-04-01T11:37:52;1.10;;;0.60;;
10056;SDS011;5068;51.286;7.518;2023-04-01T11:39:58;0.70;;;0.50;;
10056;SDS011;5068;51.286;7.518;2023-04-01T11:42:10;1.00;;;0.77;;
10056;SDS011;5068;51.286;7.518;2023-04-01T11:44:16;0.50;;;0.40;;
10056;SDS011;5068;51.286;7.518;2023-04-01T11:46:29;0.70;;;0.40;;
10056;SDS011;5068;51.286;7.518;2023-04-01T11:48:32;0.57;;;0.40;;
10056;SDS011;5068;51.286;7.518;2023-04-01T11:50:26;0.47;;;0.40;;
10056;SDS011;5068;51.286;7.518;2023-04-01T11:54:30;0.40;;;0.30;;
10056;SDS011;5068;51.286;7.518;2023-04-01T11:56:23;0.73;;;0.20;;
10056;SDS011;5068;51.286;7.518;2023-04-01T11:58:23;0.32;;;0.28;;
10056;SDS011;5068;51.286;7.518;2023-04-01T12:02:33;0.98;;;0.30;;
10056;SDS011;5068;51.286;7.518;2023-04-01T12:04:27;0.57;;;0.25;;
10056;SDS011;5068;51.286;7.518;2023-04-01T12:06:30;0.35;;;0.20;;
10056;SDS011;5068;51.286;7.518;2023-04-01T12:08:18;0.70;;;0.30;;
10056;SDS011;5068;51.286;7.518;2023-04-01T12:10:12;0.60;;;0.20;;
10056;SDS011;5068;51.286;7.518;2023-04-01T12:11:57;1.02;;;0.30;;